sensor_id;sensor_type;location;lat;lon;timestamp;temperature;humidity
65836;SHT30;52595;51.608;7.216;2023-08-31T00:01:29;11.79;99.99
65836;SHT30;52595;51.608;7.216;2023-08-31T00:03:54;11.78;99.99
65836;SHT30;52595;51.608;7.216;2023-08-31T00:06:19;11.73;99.99
65836;SHT30;52595;51.608;7.216;2023-08-31T00:08:47;11.64;99.99
65836;SHT30;52595;51.608;7.216;2023-08-31T00:11:12;11.68;99.99
65836;SHT30;52595;51.608;7.216;2023-08-31T00:13:40;11.64;99.99
65836;SHT30;52595;51.608;7.216;2023-08-31T00:16:05;11.67;99.99
65836;SHT30;52595;51.608;7.216;2023-08-31T00:18:30;11.65;99.99
65836;SHT30;52595;51.608;7.216;2023-08-31T00:20:56;11.65;99.99
65836;SHT30;52595;51.608;7.216;2023-08-31T00:23:21;11.68;99.99
65836;SHT30;52595;51.608;7.216;2023-08-31T00:25:47;11.67;99.99
65836;SHT30;52595;51.608;7.216;2023-08-31T00:28:17;11.73;99.99
65836;SHT30;52595;51.608;7.216;2023-08-31T00:30:43;11.71;99.99
65836;SHT30;52595;51.608;7.216;2023-08-31T00:33:13;11.73;99.99
65836;SHT30;52595;51.608;7.216;2023-08-31T00:35:39;11.73;99.99
65836;SHT30;52595;51.608;7.216;2023-08-31T00:38:09;11.75;99.99
65836;SHT30;52595;51.608;7.216;2023-08-31T00:40:38;11.78;99.99
65836;SHT30;52595;51.608;7.216;2023-08-31T00:43:06;11.71;99.99
65836;SHT30;52595;51.608;7.216;2023-08-31T00:45:32;11.74;99.99
65836;SHT30;52595;51.608;7.216;2023-08-31T00:47:58;11.73;99.99
65836;SHT30;52595;51.608;7.216;2023-08-31T00:50:23;11.78;99.99
65836;SHT30;52595;51.608;7.216;2023-08-31T00:52:49;11.73;99.99
65836;SHT30;52595;51.608;7.216;2023-08-31T00:55:14;11.70;99.99
65836;SHT30;52595;51.608;7.216;2023-08-31T00:57:43;11.71;99.99
65836;SHT30;52595;51.608;7.216;2023-08-31T01:00:08;11.71;99.99
65836;SHT30;52595;51.608;7.216;2023-08-31T01:03:05;11.71;99.99
65836;SHT30;52595;51.608;7.216;2023-08-31T01:05:49;11.68;99.99
65836;SHT30;52595;51.608;7.216;2023-08-31T01:08:58;11.68;99.99
65836;SHT30;52595;51.608;7.216;2023-08-31T01:11:31;11.64;99.99
65836;SHT30;52595;51.608;7.216;2023-08-31T01:14:10;11.58;99.99
65836;SHT30;52595;51.608;7.216;2023-08-31T01:16:42;11.61;99.99
65836;SHT30;52595;51.608;7.216;2023-08-31T01:21:57;11.54;99.99
65836;SHT30;52595;51.608;7.216;2023-08-31T01:24:25;11.48;99.99
65836;SHT30;52595;51.608;7.216;2023-08-31T01:26:52;11.41;99.99
65836;SHT30;52595;51.608;7.216;2023-08-31T01:29:18;11.38;99.99
65836;SHT30;52595;51.608;7.216;2023-08-31T01:31:44;11.36;99.99
65836;SHT30;52595;51.608;7.216;2023-08-31T01:34:10;11.26;99.99
65836;SHT30;52595;51.608;7.216;2023-08-31T01:36:39;11.17;99.99
65836;SHT30;52595;51.608;7.216;2023-08-31T01:39:12;11.13;99.99
65836;SHT30;52595;51.608;7.216;2023-08-31T01:41:46;11.09;99.99
65836;SHT30;52595;51.608;7.216;2023-08-31T01:44:15;10.96;99.99
65836;SHT30;52595;51.608;7.216;2023-08-31T01:46:45;11.02;99.99
65836;SHT30;52595;51.608;7.216;2023-08-31T01:49:10;11.04;99.99
65836;SHT30;52595;51.608;7.216;2023-08-31T01:51:36;10.92;99.99
65836;SHT30;52595;51.608;7.216;2023-08-31T01:54:01;10.97;99.99
65836;SHT30;52595;51.608;7.216;2023-08-31T01:56:27;10.96;99.99
65836;SHT30;52595;51.608;7.216;2023-08-31T01:58:52;10.92;99.99
65836;SHT30;52595;51.608;7.216;2023-08-31T02:01:18;10.95;99.99
65836;SHT30;52595;51.608;7.216;2023-08-31T02:03:43;10.96;99.99
65836;SHT30;52595;51.608;7.216;2023-08-31T02:06:08;10.92;99.99
65836;SHT30;52595;51.608;7.216;2023-08-31T02:08:34;10.92;99.99
65836;SHT30;52595;51.608;7.216;2023-08-31T02:10:59;10.84;99.99
65836;SHT30;52595;51.608;7.216;2023-08-31T02:13:24;10.84;99.99
65836;SHT30;52595;51.608;7.216;2023-08-31T02:15:53;10.77;99.99
65836;SHT30;52595;51.608;7.216;2023-08-31T02:18:19;10.79;99.99
65836;SHT30;52595;51.608;7.216;2023-08-31T02:20:44;10.77;99.99
65836;SHT30;52595;51.608;7.216;2023-08-31T02:23:10;10.71;99.99
65836;SHT30;52595;51.608;7.216;2023-08-31T02:25:37;10.73;99.99
65836;SHT30;52595;51.608;7.216;2023-08-31T02:28:03;10.71;99.99
65836;SHT30;52595;51.608;7.216;2023-08-31T02:30:28;10.72;99.99
65836;SHT30;52595;51.608;7.216;2023-08-31T02:32:54;10.66;99.99
65836;SHT30;52595;51.608;7.216;2023-08-31T02:35:19;10.62;99.99
65836;SHT30;52595;51.608;7.216;2023-08-31T02:37:44;10.58;99.99
65836;SHT30;52595;51.608;7.216;2023-08-31T02:40:10;10.52;99.99
65836;SHT30;52595;51.608;7.216;2023-08-31T02:42:36;10.53;99.99
65836;SHT30;52595;51.608;7.216;2023-08-31T02:45:04;10.44;99.99
65836;SHT30;52595;51.608;7.216;2023-08-31T02:47:30;10.45;99.99
65836;SHT30;52595;51.608;7.216;2023-08-31T02:49:55;10.44;99.99
65836;SHT30;52595;51.608;7.216;2023-08-31T02:52:21;10.41;99.99
65836;SHT30;52595;51.608;7.216;2023-08-31T02:54:47;10.35;99.99
65836;SHT30;52595;51.608;7.216;2023-08-31T02:57:12;10.35;99.99
65836;SHT30;52595;51.608;7.216;2023-08-31T02:59:38;10.29;99.99
65836;SHT30;52595;51.608;7.216;2023-08-31T03:02:03;10.37;99.99
65836;SHT30;52595;51.608;7.216;2023-08-31T03:04:29;10.41;99.99
65836;SHT30;52595;51.608;7.216;2023-08-31T03:06:54;10.45;99.99
65836;SHT30;52595;51.608;7.216;2023-08-31T03:09:20;10.48;99.99
65836;SHT30;52595;51.608;7.216;2023-08-31T03:11:46;10.45;99.99
65836;SHT30;52595;51.608;7.216;2023-08-31T03:14:11;10.46;99.99
65836;SHT30;52595;51.608;7.216;2023-08-31T03:16:36;10.45;99.99
65836;SHT30;52595;51.608;7.216;2023-08-31T03:19:02;10.44;99.99
65836;SHT30;52595;51.608;7.216;2023-08-31T03:21:27;10.46;99.99
65836;SHT30;52595;51.608;7.216;2023-08-31T03:23:53;10.39;99.99
65836;SHT30;52595;51.608;7.216;2023-08-31T03:26:18;10.38;99.99
65836;SHT30;52595;51.608;7.216;2023-08-31T03:28:43;10.38;99.99
65836;SHT30;52595;51.608;7.216;2023-08-31T03:31:09;10.34;99.99
65836;SHT30;52595;51.608;7.216;2023-08-31T03:33:34;10.29;99.99
65836;SHT30;52595;51.608;7.216;2023-08-31T03:36:03;10.28;99.99
65836;SHT30;52595;51.608;7.216;2023-08-31T03:38:30;10.31;99.99
65836;SHT30;52595;51.608;7.216;2023-08-31T03:40:56;10.28;99.99
65836;SHT30;52595;51.608;7.216;2023-08-31T03:43:22;10.37;99.99
65836;SHT30;52595;51.608;7.216;2023-08-31T03:45:48;10.35;99.99
65836;SHT30;52595;51.608;7.216;2023-08-31T03:48:14;10.29;99.99
65836;SHT30;52595;51.608;7.216;2023-08-31T03:50:40;10.28;99.99
65836;SHT30;52595;51.608;7.216;2023-08-31T03:53:05;10.34;99.99
65836;SHT30;52595;51.608;7.216;2023-08-31T03:55:31;10.32;99.99
65836;SHT30;52595;51.608;7.216;2023-08-31T03:57:56;10.34;99.99
65836;SHT30;52595;51.608;7.216;2023-08-31T04:00:21;10.38;99.99
65836;SHT30;52595;51.608;7.216;2023-08-31T04:02:47;10.37;99.99
65836;SHT30;52595;51.608;7.216;2023-08-31T04:05:12;10.44;99.99
65836;SHT30;52595;51.608;7.216;2023-08-31T04:07:40;10.51;99.99
65836;SHT30;52595;51.608;7.216;2023-08-31T04:10:06;10.44;99.99
65836;SHT30;52595;51.608;7.216;2023-08-31T04:12:32;10.48;99.99
65836;SHT30;52595;51.608;7.216;2023-08-31T04:14:57;10.55;99.99
65836;SHT30;52595;51.608;7.216;2023-08-31T04:17:23;10.48;99.99
65836;SHT30;52595;51.608;7.216;2023-08-31T04:19:50;10.44;99.99
65836;SHT30;52595;51.608;7.216;2023-08-31T04:22:18;10.44;99.99
65836;SHT30;52595;51.608;7.216;2023-08-31T04:24:43;10.32;99.99
65836;SHT30;52595;51.608;7.216;2023-08-31T04:27:09;10.24;99.99
65836;SHT30;52595;51.608;7.216;2023-08-31T04:29:34;10.34;99.99
65836;SHT30;52595;51.608;7.216;2023-08-31T04:31:59;10.42;99.99
65836;SHT30;52595;51.608;7.216;2023-08-31T04:34:25;10.42;99.99
65836;SHT30;52595;51.608;7.216;2023-08-31T04:36:52;10.38;99.99
65836;SHT30;52595;51.608;7.216;2023-08-31T04:39:17;10.49;99.99
65836;SHT30;52595;51.608;7.216;2023-08-31T04:41:43;10.58;99.99
65836;SHT30;52595;51.608;7.216;2023-08-31T04:44:08;10.68;99.99
65836;SHT30;52595;51.608;7.216;2023-08-31T04:46:33;10.69;99.99
65836;SHT30;52595;51.608;7.216;2023-08-31T04:48:59;10.71;99.99
65836;SHT30;52595;51.608;7.216;2023-08-31T04:51:32;10.75;99.99
65836;SHT30;52595;51.608;7.216;2023-08-31T04:53:58;10.79;99.99
65836;SHT30;52595;51.608;7.216;2023-08-31T04:56:24;10.80;99.99
65836;SHT30;52595;51.608;7.216;2023-08-31T04:58:50;10.82;99.99
65836;SHT30;52595;51.608;7.216;2023-08-31T05:01:15;10.82;99.99
65836;SHT30;52595;51.608;7.216;2023-08-31T05:03:41;10.83;99.99
65836;SHT30;52595;51.608;7.216;2023-08-31T05:06:06;10.80;99.99
65836;SHT30;52595;51.608;7.216;2023-08-31T05:08:33;10.73;99.99
65836;SHT30;52595;51.608;7.216;2023-08-31T05:10:59;10.77;99.99
65836;SHT30;52595;51.608;7.216;2023-08-31T05:13:24;10.76;99.99
65836;SHT30;52595;51.608;7.216;2023-08-31T05:15:50;10.80;99.99
65836;SHT30;52595;51.608;7.216;2023-08-31T05:18:15;10.77;99.99
65836;SHT30;52595;51.608;7.216;2023-08-31T05:20:44;10.76;99.99
65836;SHT30;52595;51.608;7.216;2023-08-31T05:23:10;10.82;99.99
65836;SHT30;52595;51.608;7.216;2023-08-31T05:25:36;10.80;99.99
65836;SHT30;52595;51.608;7.216;2023-08-31T05:28:01;10.76;99.99
65836;SHT30;52595;51.608;7.216;2023-08-31T05:30:26;10.77;99.99
65836;SHT30;52595;51.608;7.216;2023-08-31T05:32:53;10.79;99.99
65836;SHT30;52595;51.608;7.216;2023-08-31T05:35:18;10.82;99.99
65836;SHT30;52595;51.608;7.216;2023-08-31T05:37:46;10.88;99.99
65836;SHT30;52595;51.608;7.216;2023-08-31T05:40:12;10.96;99.99
65836;SHT30;52595;51.608;7.216;2023-08-31T05:42:38;11.03;99.99
65836;SHT30;52595;51.608;7.216;2023-08-31T05:45:04;11.12;99.99
65836;SHT30;52595;51.608;7.216;2023-08-31T05:47:30;11.16;99.99
65836;SHT30;52595;51.608;7.216;2023-08-31T05:49:55;11.19;99.99
65836;SHT30;52595;51.608;7.216;2023-08-31T05:52:23;11.22;99.99
65836;SHT30;52595;51.608;7.216;2023-08-31T05:54:49;11.31;99.99
65836;SHT30;52595;51.608;7.216;2023-08-31T05:57:19;11.40;99.99
65836;SHT30;52595;51.608;7.216;2023-08-31T05:59:44;11.51;99.99
65836;SHT30;52595;51.608;7.216;2023-08-31T06:02:10;11.58;99.99
65836;SHT30;52595;51.608;7.216;2023-08-31T06:04:36;11.70;99.99
65836;SHT30;52595;51.608;7.216;2023-08-31T06:07:04;11.63;99.99
65836;SHT30;52595;51.608;7.216;2023-08-31T06:09:30;11.65;99.99
65836;SHT30;52595;51.608;7.216;2023-08-31T06:11:55;11.67;99.99
65836;SHT30;52595;51.608;7.216;2023-08-31T06:14:21;11.70;99.99
65836;SHT30;52595;51.608;7.216;2023-08-31T06:16:46;11.79;99.99
65836;SHT30;52595;51.608;7.216;2023-08-31T06:19:12;11.84;99.99
65836;SHT30;52595;51.608;7.216;2023-08-31T06:21:40;11.92;99.99
65836;SHT30;52595;51.608;7.216;2023-08-31T06:24:06;11.95;99.99
65836;SHT30;52595;51.608;7.216;2023-08-31T06:26:35;11.99;99.99
65836;SHT30;52595;51.608;7.216;2023-08-31T06:29:00;11.95;99.99
65836;SHT30;52595;51.608;7.216;2023-08-31T06:31:26;11.95;99.99
65836;SHT30;52595;51.608;7.216;2023-08-31T06:33:51;11.97;99.99
65836;SHT30;52595;51.608;7.216;2023-08-31T06:36:16;11.91;99.99
65836;SHT30;52595;51.608;7.216;2023-08-31T06:38:42;11.84;99.99
65836;SHT30;52595;51.608;7.216;2023-08-31T06:41:07;11.84;99.99
65836;SHT30;52595;51.608;7.216;2023-08-31T06:43:34;11.79;99.99
65836;SHT30;52595;51.608;7.216;2023-08-31T06:45:59;11.78;99.99
65836;SHT30;52595;51.608;7.216;2023-08-31T06:48:25;11.81;99.99
65836;SHT30;52595;51.608;7.216;2023-08-31T06:50:53;11.89;99.99
65836;SHT30;52595;51.608;7.216;2023-08-31T06:53:18;11.94;99.99
65836;SHT30;52595;51.608;7.216;2023-08-31T06:55:44;12.01;99.99
65836;SHT30;52595;51.608;7.216;2023-08-31T06:58:09;12.19;99.99
65836;SHT30;52595;51.608;7.216;2023-08-31T07:00:35;12.36;99.99
65836;SHT30;52595;51.608;7.216;2023-08-31T07:03:00;12.57;99.99
65836;SHT30;52595;51.608;7.216;2023-08-31T07:05:26;12.72;99.99
65836;SHT30;52595;51.608;7.216;2023-08-31T07:07:53;12.83;99.99
65836;SHT30;52595;51.608;7.216;2023-08-31T07:10:20;12.93;99.96
65836;SHT30;52595;51.608;7.216;2023-08-31T07:12:45;12.87;99.50
65836;SHT30;52595;51.608;7.216;2023-08-31T07:15:10;12.86;99.45
65836;SHT30;52595;51.608;7.216;2023-08-31T07:17:38;12.79;99.59
65836;SHT30;52595;51.608;7.216;2023-08-31T07:20:04;12.79;99.73
65836;SHT30;52595;51.608;7.216;2023-08-31T07:22:32;13.00;99.41
65836;SHT30;52595;51.608;7.216;2023-08-31T07:24:58;13.20;98.41
65836;SHT30;52595;51.608;7.216;2023-08-31T07:27:23;13.35;98.17
65836;SHT30;52595;51.608;7.216;2023-08-31T07:29:49;13.37;98.37
65836;SHT30;52595;51.608;7.216;2023-08-31T07:32:14;13.24;97.92
65836;SHT30;52595;51.608;7.216;2023-08-31T07:34:39;13.23;98.64
65836;SHT30;52595;51.608;7.216;2023-08-31T07:37:05;13.23;98.82
65836;SHT30;52595;51.608;7.216;2023-08-31T07:39:31;13.27;98.78
65836;SHT30;52595;51.608;7.216;2023-08-31T07:41:57;13.35;98.98
65836;SHT30;52595;51.608;7.216;2023-08-31T07:44:23;13.44;99.26
65836;SHT30;52595;51.608;7.216;2023-08-31T07:46:48;13.38;98.77
65836;SHT30;52595;51.608;7.216;2023-08-31T07:49:14;13.38;99.73
65836;SHT30;52595;51.608;7.216;2023-08-31T07:51:39;13.48;99.99
65836;SHT30;52595;51.608;7.216;2023-08-31T07:54:05;13.58;99.45
65836;SHT30;52595;51.608;7.216;2023-08-31T07:56:30;13.57;99.09
65836;SHT30;52595;51.608;7.216;2023-08-31T07:58:56;13.68;98.18
65836;SHT30;52595;51.608;7.216;2023-08-31T08:01:21;13.94;97.55
65836;SHT30;52595;51.608;7.216;2023-08-31T08:03:47;14.22;96.49
65836;SHT30;52595;51.608;7.216;2023-08-31T08:06:12;14.46;95.00
65836;SHT30;52595;51.608;7.216;2023-08-31T08:08:38;14.34;94.67
65836;SHT30;52595;51.608;7.216;2023-08-31T08:11:04;14.64;95.32
65836;SHT30;52595;51.608;7.216;2023-08-31T08:13:30;14.66;93.37
65836;SHT30;52595;51.608;7.216;2023-08-31T08:15:55;14.66;93.49
65836;SHT30;52595;51.608;7.216;2023-08-31T08:18:20;14.80;93.70
65836;SHT30;52595;51.608;7.216;2023-08-31T08:20:52;14.84;92.70
65836;SHT30;52595;51.608;7.216;2023-08-31T08:23:17;14.80;92.82
65836;SHT30;52595;51.608;7.216;2023-08-31T08:25:43;14.93;92.49
65836;SHT30;52595;51.608;7.216;2023-08-31T08:28:08;15.14;91.85
65836;SHT30;52595;51.608;7.216;2023-08-31T08:30:34;15.12;92.51
65836;SHT30;52595;51.608;7.216;2023-08-31T08:32:59;14.79;93.49
65836;SHT30;52595;51.608;7.216;2023-08-31T08:35:25;14.62;94.77
65836;SHT30;52595;51.608;7.216;2023-08-31T08:37:51;14.63;94.96
65836;SHT30;52595;51.608;7.216;2023-08-31T08:40:17;14.47;95.39
65836;SHT30;52595;51.608;7.216;2023-08-31T08:42:43;14.52;95.16
65836;SHT30;52595;51.608;7.216;2023-08-31T08:45:15;14.67;94.47
65836;SHT30;52595;51.608;7.216;2023-08-31T08:47:42;14.93;93.94
65836;SHT30;52595;51.608;7.216;2023-08-31T08:50:09;15.30;92.47
65836;SHT30;52595;51.608;7.216;2023-08-31T08:52:35;15.39;92.22
65836;SHT30;52595;51.608;7.216;2023-08-31T08:55:01;15.55;91.48
65836;SHT30;52595;51.608;7.216;2023-08-31T08:57:26;15.62;91.53
65836;SHT30;52595;51.608;7.216;2023-08-31T08:59:51;15.66;91.27
65836;SHT30;52595;51.608;7.216;2023-08-31T09:02:17;15.89;90.07
65836;SHT30;52595;51.608;7.216;2023-08-31T09:04:42;16.34;89.72
65836;SHT30;52595;51.608;7.216;2023-08-31T09:07:08;16.64;87.90
65836;SHT30;52595;51.608;7.216;2023-08-31T09:09:48;16.61;87.87
65836;SHT30;52595;51.608;7.216;2023-08-31T09:12:14;16.77;88.05
65836;SHT30;52595;51.608;7.216;2023-08-31T09:14:39;16.85;86.60
65836;SHT30;52595;51.608;7.216;2023-08-31T09:17:05;16.85;85.44
65836;SHT30;52595;51.608;7.216;2023-08-31T09:19:31;17.01;84.34
65836;SHT30;52595;51.608;7.216;2023-08-31T09:21:57;17.08;83.86
65836;SHT30;52595;51.608;7.216;2023-08-31T09:24:23;17.12;84.90
65836;SHT30;52595;51.608;7.216;2023-08-31T09:26:58;17.01;83.81
65836;SHT30;52595;51.608;7.216;2023-08-31T09:29:24;17.45;83.45
65836;SHT30;52595;51.608;7.216;2023-08-31T09:31:50;17.58;83.50
65836;SHT30;52595;51.608;7.216;2023-08-31T09:34:17;17.35;80.92
65836;SHT30;52595;51.608;7.216;2023-08-31T09:36:43;17.19;82.67
65836;SHT30;52595;51.608;7.216;2023-08-31T09:39:09;17.27;81.93
65836;SHT30;52595;51.608;7.216;2023-08-31T09:41:35;17.55;81.28
65836;SHT30;52595;51.608;7.216;2023-08-31T09:44:16;17.66;80.64
65836;SHT30;52595;51.608;7.216;2023-08-31T09:46:43;17.52;81.13
65836;SHT30;52595;51.608;7.216;2023-08-31T09:49:16;17.56;79.88
65836;SHT30;52595;51.608;7.216;2023-08-31T09:51:44;17.42;79.68
65836;SHT30;52595;51.608;7.216;2023-08-31T09:54:18;17.58;79.26
65836;SHT30;52595;51.608;7.216;2023-08-31T09:56:45;17.65;78.91
65836;SHT30;52595;51.608;7.216;2023-08-31T09:59:12;17.40;79.79
65836;SHT30;52595;51.608;7.216;2023-08-31T10:01:38;17.40;80.66
65836;SHT30;52595;51.608;7.216;2023-08-31T10:04:04;17.25;78.09
65836;SHT30;52595;51.608;7.216;2023-08-31T10:06:35;17.17;79.63
65836;SHT30;52595;51.608;7.216;2023-08-31T10:09:01;17.39;79.63
65836;SHT30;52595;51.608;7.216;2023-08-31T10:11:28;17.80;78.82
65836;SHT30;52595;51.608;7.216;2023-08-31T10:13:55;18.03;78.70
65836;SHT30;52595;51.608;7.216;2023-08-31T10:16:21;17.82;76.47
65836;SHT30;52595;51.608;7.216;2023-08-31T10:18:48;17.87;75.23
65836;SHT30;52595;51.608;7.216;2023-08-31T10:21:17;17.68;76.76
65836;SHT30;52595;51.608;7.216;2023-08-31T10:23:50;17.12;77.80
65836;SHT30;52595;51.608;7.216;2023-08-31T10:26:29;16.88;79.75
65836;SHT30;52595;51.608;7.216;2023-08-31T10:28:55;16.34;82.78
65836;SHT30;52595;51.608;7.216;2023-08-31T10:31:22;15.90;85.05
65836;SHT30;52595;51.608;7.216;2023-08-31T10:36:20;15.68;85.29
65836;SHT30;52595;51.608;7.216;2023-08-31T10:39:00;16.05;85.59
65836;SHT30;52595;51.608;7.216;2023-08-31T10:41:33;16.24;85.41
65836;SHT30;52595;51.608;7.216;2023-08-31T10:43:58;16.36;81.61
65836;SHT30;52595;51.608;7.216;2023-08-31T10:46:35;16.12;84.97
65836;SHT30;52595;51.608;7.216;2023-08-31T10:49:12;15.96;86.13
65836;SHT30;52595;51.608;7.216;2023-08-31T10:51:48;15.92;89.39
65836;SHT30;52595;51.608;7.216;2023-08-31T10:54:30;16.00;88.96
65836;SHT30;52595;51.608;7.216;2023-08-31T11:02:27;16.32;88.05
65836;SHT30;52595;51.608;7.216;2023-08-31T11:07:24;17.31;86.48
65836;SHT30;52595;51.608;7.216;2023-08-31T11:09:50;17.40;84.87
65836;SHT30;52595;51.608;7.216;2023-08-31T11:12:15;17.86;84.68
65836;SHT30;52595;51.608;7.216;2023-08-31T11:14:41;17.99;84.24
65836;SHT30;52595;51.608;7.216;2023-08-31T11:17:07;17.55;83.49
65836;SHT30;52595;51.608;7.216;2023-08-31T11:19:34;17.43;82.38
65836;SHT30;52595;51.608;7.216;2023-08-31T11:22:00;18.95;79.21
65836;SHT30;52595;51.608;7.216;2023-08-31T11:24:33;20.40;75.22
65836;SHT30;52595;51.608;7.216;2023-08-31T11:26:59;22.08;72.86
65836;SHT30;52595;51.608;7.216;2023-08-31T11:29:25;21.25;66.99
65836;SHT30;52595;51.608;7.216;2023-08-31T11:31:50;20.92;66.50
65836;SHT30;52595;51.608;7.216;2023-08-31T11:34:18;21.19;65.69
65836;SHT30;52595;51.608;7.216;2023-08-31T11:36:46;21.13;65.32
65836;SHT30;52595;51.608;7.216;2023-08-31T11:39:12;21.40;64.53
65836;SHT30;52595;51.608;7.216;2023-08-31T11:41:38;22.37;62.15
65836;SHT30;52595;51.608;7.216;2023-08-31T11:44:11;21.64;65.16
65836;SHT30;52595;51.608;7.216;2023-08-31T11:46:39;22.18;61.64
65836;SHT30;52595;51.608;7.216;2023-08-31T11:49:05;22.00;61.99
65836;SHT30;52595;51.608;7.216;2023-08-31T11:51:33;22.04;61.69
65836;SHT30;52595;51.608;7.216;2023-08-31T11:54:00;22.44;60.98
65836;SHT30;52595;51.608;7.216;2023-08-31T11:56:37;21.80;60.06
65836;SHT30;52595;51.608;7.216;2023-08-31T11:59:07;21.76;60.38
65836;SHT30;52595;51.608;7.216;2023-08-31T12:01:32;21.22;62.09
65836;SHT30;52595;51.608;7.216;2023-08-31T12:03:58;20.72;64.01
65836;SHT30;52595;51.608;7.216;2023-08-31T12:06:23;20.81;63.13
65836;SHT30;52595;51.608;7.216;2023-08-31T12:08:49;21.69;60.26
65836;SHT30;52595;51.608;7.216;2023-08-31T12:11:16;21.10;61.07
65836;SHT30;52595;51.608;7.216;2023-08-31T12:13:43;22.35;58.58
65836;SHT30;52595;51.608;7.216;2023-08-31T12:16:13;23.57;56.19
65836;SHT30;52595;51.608;7.216;2023-08-31T12:18:39;23.66;55.84
65836;SHT30;52595;51.608;7.216;2023-08-31T12:21:06;23.67;55.23
65836;SHT30;52595;51.608;7.216;2023-08-31T12:23:31;21.84;59.21
65836;SHT30;52595;51.608;7.216;2023-08-31T12:25:56;21.40;61.28
65836;SHT30;52595;51.608;7.216;2023-08-31T12:28:23;20.37;62.51
65836;SHT30;52595;51.608;7.216;2023-08-31T12:30:50;20.00;64.52
65836;SHT30;52595;51.608;7.216;2023-08-31T12:33:17;19.69;64.11
65836;SHT30;52595;51.608;7.216;2023-08-31T12:35:43;19.66;65.19
65836;SHT30;52595;51.608;7.216;2023-08-31T12:38:08;20.06;62.97
65836;SHT30;52595;51.608;7.216;2023-08-31T12:40:33;19.98;60.54
65836;SHT30;52595;51.608;7.216;2023-08-31T12:42:59;20.21;61.97
65836;SHT30;52595;51.608;7.216;2023-08-31T12:45:24;19.96;61.21
65836;SHT30;52595;51.608;7.216;2023-08-31T12:47:50;22.59;56.40
65836;SHT30;52595;51.608;7.216;2023-08-31T12:50:15;24.13;54.21
65836;SHT30;52595;51.608;7.216;2023-08-31T12:52:40;24.58;51.78
65836;SHT30;52595;51.608;7.216;2023-08-31T12:55:11;23.08;54.48
65836;SHT30;52595;51.608;7.216;2023-08-31T12:57:37;23.00;55.82
65836;SHT30;52595;51.608;7.216;2023-08-31T13:00:03;22.43;54.80
65836;SHT30;52595;51.608;7.216;2023-08-31T13:02:34;21.64;56.04
65836;SHT30;52595;51.608;7.216;2023-08-31T13:04:59;21.56;57.18
65836;SHT30;52595;51.608;7.216;2023-08-31T13:07:25;21.90;56.90
65836;SHT30;52595;51.608;7.216;2023-08-31T13:09:50;22.10;55.47
65836;SHT30;52595;51.608;7.216;2023-08-31T13:12:15;22.62;55.82
65836;SHT30;52595;51.608;7.216;2023-08-31T13:14:43;23.88;53.19
65836;SHT30;52595;51.608;7.216;2023-08-31T13:17:09;24.01;54.01
65836;SHT30;52595;51.608;7.216;2023-08-31T13:19:34;23.42;55.13
65836;SHT30;52595;51.608;7.216;2023-08-31T13:21:59;23.57;56.35
65836;SHT30;52595;51.608;7.216;2023-08-31T13:24:25;22.64;57.08
65836;SHT30;52595;51.608;7.216;2023-08-31T13:26:50;22.25;60.28
65836;SHT30;52595;51.608;7.216;2023-08-31T13:29:16;21.70;59.17
65836;SHT30;52595;51.608;7.216;2023-08-31T13:31:41;21.02;61.11
65836;SHT30;52595;51.608;7.216;2023-08-31T13:34:07;21.67;60.43
65836;SHT30;52595;51.608;7.216;2023-08-31T13:36:33;21.86;61.58
65836;SHT30;52595;51.608;7.216;2023-08-31T13:38:59;21.10;61.91
65836;SHT30;52595;51.608;7.216;2023-08-31T13:41:24;20.28;64.93
65836;SHT30;52595;51.608;7.216;2023-08-31T13:43:50;19.93;66.35
65836;SHT30;52595;51.608;7.216;2023-08-31T13:46:17;19.42;67.72
65836;SHT30;52595;51.608;7.216;2023-08-31T13:48:42;18.88;68.80
65836;SHT30;52595;51.608;7.216;2023-08-31T13:51:07;18.55;70.32
65836;SHT30;52595;51.608;7.216;2023-08-31T13:53:33;18.38;71.52
65836;SHT30;52595;51.608;7.216;2023-08-31T13:55:59;17.68;76.99
65836;SHT30;52595;51.608;7.216;2023-08-31T13:58:24;17.28;79.29
65836;SHT30;52595;51.608;7.216;2023-08-31T14:00:50;17.08;80.92
65836;SHT30;52595;51.608;7.216;2023-08-31T14:03:15;17.85;77.61
65836;SHT30;52595;51.608;7.216;2023-08-31T14:05:42;19.01;73.93
65836;SHT30;52595;51.608;7.216;2023-08-31T14:08:07;18.57;74.03
65836;SHT30;52595;51.608;7.216;2023-08-31T14:10:33;20.49;69.79
65836;SHT30;52595;51.608;7.216;2023-08-31T14:12:59;19.72;70.66
65836;SHT30;52595;51.608;7.216;2023-08-31T14:15:25;19.14;72.00
65836;SHT30;52595;51.608;7.216;2023-08-31T14:17:51;18.72;73.60
65836;SHT30;52595;51.608;7.216;2023-08-31T14:20:18;18.20;74.01
65836;SHT30;52595;51.608;7.216;2023-08-31T14:22:44;17.90;73.68
65836;SHT30;52595;51.608;7.216;2023-08-31T14:25:11;17.58;73.60
65836;SHT30;52595;51.608;7.216;2023-08-31T14:27:37;17.53;74.43
65836;SHT30;52595;51.608;7.216;2023-08-31T14:30:04;17.31;75.88
65836;SHT30;52595;51.608;7.216;2023-08-31T14:32:30;16.87;77.96
65836;SHT30;52595;51.608;7.216;2023-08-31T14:34:55;16.02;82.44
65836;SHT30;52595;51.608;7.216;2023-08-31T14:37:21;15.41;88.92
65836;SHT30;52595;51.608;7.216;2023-08-31T14:39:46;14.97;92.15
65836;SHT30;52595;51.608;7.216;2023-08-31T14:42:12;14.81;95.19
65836;SHT30;52595;51.608;7.216;2023-08-31T14:44:37;14.70;92.96
65836;SHT30;52595;51.608;7.216;2023-08-31T14:47:03;14.69;93.61
65836;SHT30;52595;51.608;7.216;2023-08-31T14:49:31;14.60;94.94
65836;SHT30;52595;51.608;7.216;2023-08-31T14:51:57;14.46;97.02
65836;SHT30;52595;51.608;7.216;2023-08-31T14:54:22;14.26;97.79
65836;SHT30;52595;51.608;7.216;2023-08-31T14:56:49;14.08;97.52
65836;SHT30;52595;51.608;7.216;2023-08-31T14:59:14;13.95;98.42
65836;SHT30;52595;51.608;7.216;2023-08-31T15:01:40;13.94;98.59
65836;SHT30;52595;51.608;7.216;2023-08-31T15:04:05;13.92;98.95
65836;SHT30;52595;51.608;7.216;2023-08-31T15:06:30;13.95;99.38
65836;SHT30;52595;51.608;7.216;2023-08-31T15:08:58;13.92;99.48
65836;SHT30;52595;51.608;7.216;2023-08-31T15:11:28;13.90;99.98
65836;SHT30;52595;51.608;7.216;2023-08-31T15:13:53;13.86;99.99
65836;SHT30;52595;51.608;7.216;2023-08-31T15:16:19;13.79;99.52
65836;SHT30;52595;51.608;7.216;2023-08-31T15:18:44;13.82;99.99
65836;SHT30;52595;51.608;7.216;2023-08-31T15:21:12;13.88;99.99
65836;SHT30;52595;51.608;7.216;2023-08-31T15:23:38;13.95;99.99
65836;SHT30;52595;51.608;7.216;2023-08-31T15:26:06;14.01;99.99
65836;SHT30;52595;51.608;7.216;2023-08-31T15:28:32;14.18;99.99
65836;SHT30;52595;51.608;7.216;2023-08-31T15:30:58;14.37;99.99
65836;SHT30;52595;51.608;7.216;2023-08-31T15:33:23;14.49;99.99
65836;SHT30;52595;51.608;7.216;2023-08-31T15:35:48;14.44;99.99
65836;SHT30;52595;51.608;7.216;2023-08-31T15:38:14;14.44;99.99
65836;SHT30;52595;51.608;7.216;2023-08-31T15:40:45;14.49;99.99